Time;durP1;ratioP1;P1;durP2;ratioP2;P2;SDS_P1;SDS_P2;PMS_P1;PMS_P2;Temp;Humidity;BMP_temperature;BMP_pressure;BME280_temperature;BME280_humidity;BME280_pressure;Samples;Min_cycle;Max_cycle;Signal;HPM_P1;HPM_P2
2022/01/02 00:07:06;;;;;;;20.50;11.00;;;;;;;12.26;nan;102590.81;6122333;23;20401;-83
2022/01/02 12:08:46;;;;;;;14.20;7.23;;;;;;;18.10;nan;102676.06;6138725;23;20484;-84
2022/01/02 12:11:40;;;;;;;18.50;6.90;;;;;;;18.20;nan;102665.53;6076981;23;20799;-83
2022/01/02 12:14:10;;;;;;;10.37;5.47;;;;;;;18.30;nan;102654.97;6125754;23;20442;-84
2022/01/02 12:16:40;;;;;;;10.27;5.80;;;;;;;18.44;nan;102662.38;6100797;23;20553;-84
2022/01/02 12:19:09;;;;;;;18.07;4.93;;;;;;;18.51;nan;102660.50;6101505;23;20413;-83
2022/01/02 12:21:37;;;;;;;23.27;10.70;;;;;;;18.67;nan;102669.63;6126765;23;20458;-84
2022/01/02 12:24:12;;;;;;;24.33;12.10;;;;;;;18.74;nan;102663.09;6077348;23;20905;-85
2022/01/02 12:26:40;;;;;;;25.23;13.70;;;;;;;18.84;nan;102668.28;6080562;23;20413;-84
2022/01/02 12:29:13;;;;;;;27.37;15.40;;;;;;;18.82;nan;102648.25;6101708;23;20494;-84
2022/01/02 12:31:42;;;;;;;31.83;17.37;;;;;;;18.96;nan;102647.25;6077297;23;20414;-85
2022/01/02 12:34:19;;;;;;;26.07;15.13;;;;;;;19.01;nan;102647.53;6050238;23;20443;-85
2022/01/02 12:36:48;;;;;;;54.27;28.23;;;;;;;19.00;nan;102643.03;6126057;23;20897;-84
2022/01/02 12:39:28;;;;;;;42.47;23.23;;;;;;;19.10;nan;102646.28;6100558;23;20477;-84
2022/01/02 12:42:07;;;;;;;39.67;20.10;;;;;;;19.09;nan;102639.03;6053699;23;20414;-82
2022/01/02 12:44:35;;;;;;;52.87;29.20;;;;;;;19.11;nan;102636.91;6077184;23;20424;-82
2022/01/02 12:47:06;;;;;;;110.73;47.30;;;;;;;19.05;nan;102628.56;6100892;23;20406;-85
2022/01/02 12:49:36;;;;;;;52.37;26.13;;;;;;;19.13;nan;102628.38;6124266;23;20410;-85
2022/01/02 12:52:12;;;;;;;25.60;12.97;;;;;;;19.20;nan;102632.94;6054082;23;20418;-84
2022/01/02 12:54:41;;;;;;;22.17;10.63;;;;;;;19.17;nan;102613.91;6101440;23;21035;-84
2022/01/02 12:57:11;;;;;;;20.17;11.40;;;;;;;19.29;nan;102619.72;6076509;23;20433;-83
2022/01/02 12:59:43;;;;;;;15.40;8.80;;;;;;;19.30;nan;102618.66;6077527;23;20519;-84
2022/01/02 13:02:21;;;;;;;16.80;8.77;;;;;;;19.38;nan;102631.50;6101072;23;20405;-84
2022/01/02 13:04:52;;;;;;;21.07;6.13;;;;;;;19.38;nan;102612.97;6100189;23;20421;-84
2022/01/02 13:07:27;;;;;;;9.90;5.40;;;;;;;19.43;nan;102610.44;6100506;23;20410;-84
2022/01/02 13:09:56;;;;;;;7.90;4.27;;;;;;;19.47;nan;102602.53;6099263;23;20426;-84
2022/01/02 13:12:30;;;;;;;28.80;14.10;;;;;;;19.52;nan;102600.03;6099679;23;20414;-85
2022/01/02 13:15:08;;;;;;;71.53;31.23;;;;;;;19.57;nan;102597.50;6075526;23;20421;-84
2022/01/02 13:17:40;;;;;;;48.87;20.87;;;;;;;19.61;nan;102598.78;6052929;23;20414;-84
2022/01/02 13:20:11;;;;;;;58.03;25.30;;;;;;;19.67;nan;102598.78;6124973;23;20413;-84
2022/01/02 13:22:46;;;;;;;15.87;9.10;;;;;;;19.68;nan;102599.66;6075027;23;20395;-85
2022/01/02 13:25:33;;;;;;;12.40;7.40;;;;;;;19.64;nan;102588.09;6124042;23;20489;-83
2022/01/02 13:28:02;;;;;;;16.13;6.60;;;;;;;19.58;nan;102579.78;6099257;23;20897;-84
2022/01/02 13:30:33;;;;;;;9.17;5.10;;;;;;;19.55;nan;102582.97;6075614;23;20411;-84
2022/01/02 13:33:02;;;;;;;10.77;6.47;;;;;;;19.54;nan;102571.03;6099709;23;20958;-85
2022/01/02 13:35:31;;;;;;;9.07;5.10;;;;;;;19.60;nan;102572.13;6099471;23;20570;-85
2022/01/02 13:38:00;;;;;;;9.50;4.57;;;;;;;19.62;nan;102572.75;6100233;23;20541;-86
2022/01/02 13:40:38;;;;;;;9.53;4.40;;;;;;;19.56;nan;102571.66;6100910;23;20549;-84
2022/01/02 13:43:29;;;;;;;10.17;4.80;;;;;;;19.67;nan;102573.81;6099963;23;20402;-84
2022/01/02 13:46:00;;;;;;;12.27;6.07;;;;;;;19.70;nan;102569.78;6080142;23;20527;-84
2022/01/02 13:48:29;;;;;;;7.97;5.30;;;;;;;19.76;nan;102574.50;6052249;23;20477;-83
2022/01/02 13:50:58;;;;;;;14.50;5.97;;;;;;;19.75;nan;102566.38;6075475;23;20418;-83
2022/01/02 13:53:30;;;;;;;11.73;5.67;;;;;;;19.79;nan;102571.31;6099474;23;20773;-83
2022/01/02 13:56:04;;;;;;;8.60;4.90;;;;;;;19.85;nan;102578.78;6075738;23;20410;-83
2022/01/02 13:58:33;;;;;;;9.63;3.97;;;;;;;19.90;nan;102567.91;6124998;23;20489;-83
2022/01/02 14:01:04;;;;;;;12.67;5.30;;;;;;;19.94;nan;102566.41;6099202;23;20490;-83
2022/01/02 14:03:39;;;;;;;9.23;4.53;;;;;;;19.98;nan;102575.19;6099168;23;20533;-83
2022/01/02 14:06:10;;;;;;;9.00;4.80;;;;;;;19.95;nan;102573.69;6076852;23;20544;-83
2022/01/02 14:08:43;;;;;;;9.13;3.90;;;;;;;19.85;nan;102562.13;6073436;23;20575;-83
2022/01/02 14:11:17;;;;;;;9.23;4.30;;;;;;;19.77;nan;102565.13;5938476;23;4387450;-83
2022/01/02 14:13:49;;;;;;;5.87;3.87;;;;;;;19.76;nan;102570.88;6076995;23;20438;-83
2022/01/02 14:19:04;;;;;;;8.23;4.23;;;;;;;19.63;nan;102568.91;6104484;23;20985;-84
2022/01/02 14:21:35;;;;;;;5.33;3.37;;;;;;;19.53;nan;102557.34;6100515;23;20849;-85
2022/01/02 14:24:03;;;;;;;7.93;3.70;;;;;;;19.48;nan;102565.41;6100255;23;20745;-83
2022/01/02 14:26:31;;;;;;;6.70;4.20;;;;;;;19.38;nan;102564.97;6100629;23;20497;-83
2022/01/02 14:29:01;;;;;;;11.07;4.20;;;;;;;19.18;nan;102549.09;6100041;23;20406;-84
2022/01/02 14:31:29;;;;;;;8.90;4.20;;;;;;;19.11;nan;102556.53;6124404;23;20407;-84
2022/01/02 14:33:59;;;;;;;8.67;4.73;;;;;;;19.02;nan;102555.00;6078983;23;20520;-82
2022/01/02 14:36:27;;;;;;;13.10;5.00;;;;;;;18.89;nan;102543.81;6128424;23;21016;-83
2022/01/02 14:38:55;;;;;;;14.90;5.00;;;;;;;18.85;nan;102548.09;6103773;23;20545;-83
2022/01/02 14:41:23;;;;;;;15.87;6.33;;;;;;;18.79;nan;102537.81;6079893;23;20405;-83
2022/01/02 14:43:51;;;;;;;11.40;5.00;;;;;;;18.77;nan;102534.38;6103260;23;20832;-83
2022/01/02 14:46:19;;;;;;;7.80;3.93;;;;;;;18.77;nan;102539.94;6103937;23;20485;-83
2022/01/02 14:48:48;;;;;;;8.30;4.20;;;;;;;18.77;nan;102535.25;6103461;23;20417;-81
2022/01/02 14:51:18;;;;;;;16.17;3.73;;;;;;;18.78;nan;102536.09;6080360;23;20404;-82
2022/01/02 14:53:46;;;;;;;8.73;4.03;;;;;;;18.81;nan;102535.69;6081062;23;20521;-81
2022/01/02 14:56:14;;;;;;;6.50;3.87;;;;;;;18.80;nan;102534.00;6103466;23;20552;-82
2022/01/02 14:58:45;;;;;;;9.73;4.13;;;;;;;18.81;nan;102530.16;6104105;23;20905;-81
2022/01/02 15:01:13;;;;;;;12.97;4.07;;;;;;;18.76;nan;102529.91;6079534;23;20873;-82
2022/01/02 15:03:41;;;;;;;4.33;3.37;;;;;;;18.68;nan;102528.16;6103806;23;20549;-82
2022/01/02 15:06:13;;;;;;;5.83;3.60;;;;;;;18.61;nan;102524.50;6081975;23;20493;-82
2022/01/02 15:08:41;;;;;;;6.10;3.83;;;;;;;18.49;nan;102521.38;6103705;23;20478;-82
2022/01/02 15:11:09;;;;;;;9.33;4.20;;;;;;;18.49;nan;102535.22;6098444;23;20521;-81
2022/01/02 15:13:37;;;;;;;8.10;4.57;;;;;;;18.40;nan;102535.59;6098400;23;20812;-82
2022/01/02 15:16:05;;;;;;;8.97;4.87;;;;;;;18.34;nan;102528.97;6050371;23;20741;-82
2022/01/02 15:18:33;;;;;;;8.47;4.60;;;;;;;18.32;nan;102531.06;6074861;23;20550;-82
2022/01/02 15:21:04;;;;;;;9.70;4.20;;;;;;;18.24;nan;102532.09;6075552;23;20870;-82
2022/01/02 15:23:32;;;;;;;8.03;4.30;;;;;;;18.18;nan;102532.03;6074815;23;20406;-82
2022/01/02 15:26:07;;;;;;;6.47;3.67;;;;;;;18.06;nan;102528.97;6075834;23;20742;-82
2022/01/02 15:28:47;;;;;;;13.63;3.90;;;;;;;18.05;nan;102540.22;6077026;23;20413;-82
2022/01/02 15:31:16;;;;;;;7.90;3.83;;;;;;;17.95;nan;102535.88;6099851;23;20968;-82
2022/01/02 15:33:45;;;;;;;6.83;4.13;;;;;;;17.86;nan;102531.53;6098198;23;20809;-82
2022/01/02 15:36:13;;;;;;;6.30;3.73;;;;;;;17.80;nan;102535.09;6098692;23;20730;-82
2022/01/02 15:38:41;;;;;;;8.10;3.50;;;;;;;17.77;nan;102549.31;6074782;23;20494;-81
2022/01/02 15:41:08;;;;;;;8.60;3.13;;;;;;;17.74;nan;102544.16;6074893;23;20526;-82
2022/01/02 15:43:38;;;;;;;5.50;3.67;;;;;;;17.72;nan;102549.03;6097914;23;20966;-81
2022/01/02 15:46:06;;;;;;;4.93;3.50;;;;;;;17.68;nan;102549.66;6073042;23;20414;-82
2022/01/02 15:48:35;;;;;;;4.60;3.10;;;;;;;17.71;nan;102550.09;6073193;23;20494;-81
2022/01/02 15:51:03;;;;;;;6.30;3.50;;;;;;;17.68;nan;102544.13;6098577;23;20414;-81
2022/01/02 15:53:31;;;;;;;10.83;3.60;;;;;;;17.69;nan;102557.75;6072421;23;20446;-82
2022/01/02 15:55:59;;;;;;;4.50;3.20;;;;;;;17.62;nan;102540.19;6096773;23;20726;-82
2022/01/02 15:58:27;;;;;;;5.27;3.50;;;;;;;17.62;nan;102542.97;6014029;23;20928;-82
2022/01/02 16:00:56;;;;;;;11.67;4.20;;;;;;;17.60;nan;102534.00;6014413;23;21000;-82
2022/01/02 16:03:26;;;;;;;8.00;3.70;;;;;;;17.66;nan;102541.56;6014022;23;20409;-83
2022/01/02 16:05:54;;;;;;;8.87;4.50;;;;;;;17.67;nan;102542.41;6036875;23;20759;-82
2022/01/02 16:12:21;;;;;;;6.73;3.90;;;;;;;17.56;nan;102529.91;6007217;23;20397;-85
2022/01/02 16:22:19;;;;;;;5.67;3.20;;;;;;;17.33;nan;102537.50;6097113;23;20371;-83
2022/01/02 16:25:03;;;;;;;9.47;3.90;;;;;;;17.29;nan;102542.59;6068926;23;20407;-84
2022/01/02 16:27:42;;;;;;;6.43;3.70;;;;;;;17.22;nan;102536.97;6072520;23;20736;-84
2022/01/02 16:41:43;;;;;;;5.93;4.40;;;;;;;16.93;nan;102545.31;5912199;24;20488;-84
2022/01/02 16:44:25;;;;;;;6.90;4.23;;;;;;;16.77;nan;102528.91;5920574;24;20413;-86
2022/01/02 16:46:54;;;;;;;9.27;4.33;;;;;;;16.72;nan;102534.19;5947043;24;20420;-84
2022/01/02 16:49:21;;;;;;;6.13;3.47;;;;;;;16.66;nan;102545.97;5924607;24;20428;-84
2022/01/02 16:51:50;;;;;;;5.87;4.00;;;;;;;16.52;nan;102542.13;5925477;24;20500;-86
2022/01/02 16:54:26;;;;;;;5.47;3.70;;;;;;;16.44;nan;102540.31;5925755;24;20932;-86
2022/01/02 18:33:40;;;;;;;13.53;7.70;;;;;;;13.76;nan;102584.69;6065568;23;20396;-87
2022/01/02 18:36:27;;;;;;;20.97;7.63;;;;;;;13.64;nan;102575.91;5952330;24;20478;-86
2022/01/02 18:39:39;;;;;;;21.13;8.40;;;;;;;13.68;nan;102585.50;5932567;24;20476;-86
2022/01/02 18:43:06;;;;;;;18.10;9.33;;;;;;;13.53;nan;102554.25;5930022;24;20415;-88
2022/01/02 18:45:44;;;;;;;28.17;15.10;;;;;;;13.59;nan;102559.06;5979643;24;20477;-88
2022/01/02 18:49:15;;;;;;;25.97;11.50;;;;;;;13.70;nan;102583.47;5940393;24;20423;-87
2022/01/02 18:52:02;;;;;;;48.17;18.10;;;;;;;13.58;nan;102551.84;5953526;24;20406;-93
2022/01/02 18:54:53;;;;;;;50.30;15.83;;;;;;;13.79;nan;102578.84;5842534;24;20447;-84
2022/01/02 18:57:47;;;;;;;33.27;14.97;;;;;;;13.70;nan;102566.97;5786036;24;20799;-85
2022/01/02 19:01:20;;;;;;;27.60;13.57;;;;;;;13.80;nan;102589.66;5843607;24;20413;-85
2022/01/02 19:07:54;;;;;;;56.27;27.03;;;;;;;13.62;nan;102580.72;5964322;24;20387;-85
2022/01/02 19:10:27;;;;;;;36.90;22.37;;;;;;;13.62;nan;102588.97;5957793;24;20414;-87
2022/01/02 19:36:20;;;;;;;21.33;13.60;;;;;;;13.22;nan;102575.09;5926224;24;20767;-86
2022/01/02 19:39:15;;;;;;;25.47;16.37;;;;;;;13.12;nan;102572.44;5834930;24;20408;-85
2022/01/02 19:42:09;;;;;;;26.23;13.13;;;;;;;13.07;nan;102581.19;5818528;24;20525;-84
2022/01/02 19:44:58;;;;;;;23.73;12.20;;;;;;;13.06;nan;102601.44;5799548;24;20407;-85
2022/01/02 19:47:43;;;;;;;23.67;13.20;;;;;;;12.98;nan;102604.13;5836171;24;20437;-84
2022/01/02 19:50:28;;;;;;;20.33;12.77;;;;;;;12.88;nan;102602.56;5837225;24;20403;-84
2022/01/02 19:53:09;;;;;;;19.73;12.23;;;;;;;12.83;nan;102603.03;5791624;24;20420;-84
2022/01/02 19:55:54;;;;;;;24.97;11.83;;;;;;;12.80;nan;102612.44;5770176;24;20818;-84
2022/01/02 19:58:38;;;;;;;21.47;10.87;;;;;;;12.71;nan;102598.81;5826445;24;20453;-84
2022/01/02 20:01:23;;;;;;;22.70;12.40;;;;;;;12.63;nan;102599.66;5826028;24;20419;-84
2022/01/02 20:04:08;;;;;;;24.07;12.23;;;;;;;12.62;nan;102602.56;5811799;24;20508;-84
2022/01/02 20:06:52;;;;;;;31.00;13.60;;;;;;;12.58;nan;102601.16;5860589;24;20464;-84
2022/01/02 20:09:56;;;;;;;34.37;12.67;;;;;;;12.49;nan;102603.00;5883458;24;20462;-84
2022/01/02 20:12:23;;;;;;;27.97;11.57;;;;;;;12.48;nan;102611.38;5925937;24;20417;-85
2022/01/02 20:14:58;;;;;;;36.60;17.07;;;;;;;12.36;nan;102592.44;5925574;24;20527;-85
2022/01/02 20:17:29;;;;;;;57.13;22.50;;;;;;;12.37;nan;102604.25;5937594;23;20428;-85
2022/01/02 20:20:00;;;;;;;44.90;20.00;;;;;;;12.26;nan;102580.72;6014944;23;20409;-84
2022/01/02 20:22:30;;;;;;;41.87;18.67;;;;;;;12.35;nan;102601.69;5990540;23;20405;-84
2022/01/02 20:25:41;;;;;;;42.37;18.57;;;;;;;12.34;nan;102610.06;5995117;23;20491;-84
2022/01/02 20:28:17;;;;;;;31.13;14.27;;;;;;;12.14;nan;102592.06;6015299;23;20507;-84
2022/01/02 20:30:57;;;;;;;28.87;11.67;;;;;;;12.04;nan;102597.66;6041434;23;20493;-84
2022/01/02 20:33:30;;;;;;;29.90;11.97;;;;;;;12.05;nan;102611.22;6126373;23;20566;-85
2022/01/02 20:36:08;;;;;;;21.73;9.30;;;;;;;12.04;nan;102625.06;6101847;23;20438;-85
2022/01/02 20:38:38;;;;;;;20.83;8.77;;;;;;;11.96;nan;102616.75;5985415;23;20414;-84
2022/01/02 20:41:06;;;;;;;17.97;9.93;;;;;;;11.88;nan;102619.44;5986404;23;20409;-85
2022/01/02 20:43:33;;;;;;;21.67;10.60;;;;;;;11.86;nan;102629.69;5963716;23;20497;-84
2022/01/02 20:46:01;;;;;;;23.03;11.10;;;;;;;11.69;nan;102607.59;5962597;23;20414;-85
2022/01/02 20:48:29;;;;;;;48.13;29.90;;;;;;;11.81;nan;102632.03;5940144;23;20492;-84
2022/01/02 20:50:58;;;;;;;166.87;98.30;;;;;;;11.71;nan;102616.50;5985660;23;20973;-84
2022/01/02 20:53:29;;;;;;;149.07;96.47;;;;;;;11.67;nan;102616.97;5942506;23;20465;-84
2022/01/02 20:56:03;;;;;;;82.73;55.00;;;;;;;11.59;nan;102611.38;6028772;23;21007;-83
2022/01/02 20:58:54;;;;;;;76.77;50.07;;;;;;;11.73;nan;102636.41;6101640;23;20489;-84
2022/01/02 21:01:25;;;;;;;52.57;37.07;;;;;;;11.58;nan;102612.41;6125470;23;20489;-84
2022/01/02 21:04:02;;;;;;;36.13;18.90;;;;;;;11.66;nan;102618.84;6102793;23;20728;-83
2022/01/02 21:06:33;;;;;;;32.70;15.47;;;;;;;11.60;nan;102615.84;6101535;23;20398;-83
2022/01/02 21:09:06;;;;;;;40.73;17.73;;;;;;;11.52;nan;102602.09;6101669;23;20410;-83
2022/01/02 21:11:43;;;;;;;49.10;21.17;;;;;;;11.56;nan;102603.47;6077805;23;20414;-84
2022/01/02 21:14:17;;;;;;;49.20;24.80;;;;;;;11.57;nan;102614.28;6084535;23;21089;-83
2022/01/02 21:16:48;;;;;;;51.77;23.83;;;;;;;11.61;nan;102623.06;6078435;23;20794;-83
2022/01/02 21:19:17;;;;;;;36.60;16.00;;;;;;;11.55;nan;102624.53;6100387;23;20734;-83
2022/01/02 21:21:47;;;;;;;37.20;17.93;;;;;;;11.48;nan;102620.69;6078179;23;20485;-87
2022/01/02 21:24:18;;;;;;;31.97;14.73;;;;;;;11.45;nan;102618.25;6076731;23;20481;-83
2022/01/02 21:26:51;;;;;;;37.60;14.87;;;;;;;11.36;nan;102613.69;6101699;23;20437;-83
2022/01/02 21:29:37;;;;;;;30.73;14.10;;;;;;;11.45;nan;102618.25;6125018;23;20494;-83
2022/01/02 21:36:01;;;;;;;29.97;11.10;;;;;;;11.40;nan;102621.44;6126399;23;20813;-85
2022/01/02 21:39:05;;;;;;;32.43;13.83;;;;;;;11.32;nan;102613.16;5898097;24;20478;-84
2022/01/02 21:41:33;;;;;;;25.90;12.90;;;;;;;11.24;nan;102593.03;5921197;23;20499;-84
2022/01/02 21:44:01;;;;;;;21.20;9.13;;;;;;;11.17;nan;102591.91;5966811;23;20924;-84
2022/01/02 21:46:53;;;;;;;15.83;7.80;;;;;;;11.18;nan;102599.09;5971627;23;20413;-84
2022/01/02 21:59:17;;;;;;;25.60;13.80;;;;;;;11.05;nan;102600.31;5925438;24;20416;-88
2022/01/02 22:01:47;;;;;;;24.63;9.40;;;;;;;11.11;nan;102604.34;5946061;24;20790;-85
2022/01/02 22:04:17;;;;;;;16.63;9.63;;;;;;;11.04;nan;102609.53;5924510;24;20494;-86
2022/01/02 22:06:46;;;;;;;16.57;9.30;;;;;;;11.00;nan;102602.66;5925310;24;20413;-85
2022/01/02 22:09:14;;;;;;;19.30;10.90;;;;;;;10.97;nan;102602.94;6001159;23;20814;-85
2022/01/02 22:11:48;;;;;;;27.97;13.20;;;;;;;10.86;nan;102588.59;5985283;23;20449;-85
2022/01/02 22:14:17;;;;;;;24.87;13.57;;;;;;;10.96;nan;102614.94;5986651;23;20506;-85
2022/01/02 22:24:27;;;;;;;17.23;8.90;;;;;;;10.78;nan;102600.28;6008924;23;20366;-86
2022/01/02 22:26:55;;;;;;;22.37;11.20;;;;;;;10.76;nan;102599.59;6031168;23;20434;-85
2022/01/02 22:29:39;;;;;;;21.13;11.90;;;;;;;10.81;nan;102602.72;5985459;23;20414;-85
2022/01/02 22:32:10;;;;;;;21.77;8.93;;;;;;;10.78;nan;102593.94;6000068;23;20493;-85
2022/01/02 22:34:42;;;;;;;15.37;8.17;;;;;;;10.74;nan;102587.94;6072369;23;20450;-85
2022/01/02 22:37:21;;;;;;;22.23;9.77;;;;;;;10.80;nan;102606.47;6095292;23;20406;-86
2022/01/02 22:39:55;;;;;;;24.70;11.93;;;;;;;10.68;nan;102592.13;6050502;23;20777;-86
2022/01/02 22:42:31;;;;;;;27.47;13.63;;;;;;;10.64;nan;102587.97;6074267;23;20418;-85
2022/01/02 22:52:51;;;;;;;14.90;7.50;;;;;;;10.53;nan;102590.03;6097300;23;20363;-85
2022/01/02 22:55:26;;;;;;;22.53;7.70;;;;;;;10.60;nan;102607.53;6073313;23;20439;-84
2022/01/02 22:58:23;;;;;;;24.77;12.77;;;;;;;10.64;nan;102608.97;6049701;23;20399;-84
2022/01/02 23:01:11;;;;;;;28.33;14.10;;;;;;;10.54;nan;102605.44;6072103;23;20411;-84
2022/01/02 23:03:42;;;;;;;22.77;12.17;;;;;;;10.46;nan;102597.09;6052692;23;20922;-84
2022/01/02 23:06:39;;;;;;;24.50;12.90;;;;;;;10.54;nan;102605.44;6049938;23;20494;-85
2022/01/02 23:09:13;;;;;;;21.20;12.80;;;;;;;10.44;nan;102596.38;6050960;23;20415;-84
2022/01/02 23:12:19;;;;;;;22.50;10.97;;;;;;;10.44;nan;102599.09;6050049;23;20894;-84
2022/01/02 23:14:52;;;;;;;22.17;10.50;;;;;;;10.52;nan;102610.19;6053286;23;20555;-84
2022/01/02 23:17:20;;;;;;;16.27;9.03;;;;;;;10.45;nan;102596.22;6096196;23;21033;-84
2022/01/02 23:19:51;;;;;;;22.77;10.50;;;;;;;10.47;nan;102605.16;6048723;23;20495;-84
2022/01/02 23:22:19;;;;;;;19.80;9.97;;;;;;;10.45;nan;102600.81;6072295;23;20407;-84
2022/01/02 23:24:49;;;;;;;22.27;9.40;;;;;;;10.42;nan;102606.59;6048819;23;20862;-86
2022/01/02 23:27:17;;;;;;;20.80;9.60;;;;;;;10.35;nan;102599.00;6072654;23;20514;-86
